Time;durP1;ratioP1;P1;durP2;ratioP2;P2;SDS_P1;SDS_P2;PMS_P1;PMS_P2;Temp;Humidity;BMP_temperature;BMP_pressure;BME280_temperature;BME280_humidity;BME280_pressure;Samples;Min_cycle;Max_cycle;Signal;HPM_P1;HPM_P2
2023/08/25 00:00:57;;;;;;;4.57;3.15;;;20.70;99.90;;;;;;5055844;28;20225;-88
2023/08/25 00:03:23;;;;;;;5.00;2.90;;;20.80;99.90;;;;;;5037874;28;20235;-88
2023/08/25 00:05:54;;;;;;;7.28;3.28;;;20.80;99.90;;;;;;5038200;28;20181;-87
2023/08/25 00:08:21;;;;;;;4.80;3.20;;;20.70;99.90;;;;;;5037825;28;20174;-87
2023/08/25 00:10:47;;;;;;;5.32;3.40;;;20.60;99.90;;;;;;5038176;28;20185;-88
2023/08/25 00:13:14;;;;;;;7.03;3.40;;;20.60;99.90;;;;;;5037972;28;20178;-89
2023/08/25 00:15:41;;;;;;;9.93;3.28;;;20.60;99.90;;;;;;5038026;28;20182;-88
2023/08/25 00:18:07;;;;;;;4.93;2.90;;;20.60;99.90;;;;;;5037020;28;20320;-87
2023/08/25 00:20:36;;;;;;;6.30;3.10;;;20.60;99.90;;;;;;5037961;28;20252;-87
2023/08/25 00:23:03;;;;;;;6.40;3.88;;;20.50;99.90;;;;;;5037737;28;20219;-88
2023/08/25 00:25:32;;;;;;;6.78;3.47;;;20.50;99.90;;;;;;5038117;28;20178;-88
2023/08/25 00:27:58;;;;;;;11.90;3.45;;;20.50;99.90;;;;;;5038685;28;20174;-88
2023/08/25 00:30:31;;;;;;;6.70;3.38;;;20.50;99.90;;;;;;5037843;28;20192;-88
2023/08/25 00:32:57;;;;;;;5.55;3.63;;;20.60;99.90;;;;;;5037370;28;20667;-88
2023/08/25 00:35:28;;;;;;;8.32;3.35;;;20.60;99.90;;;;;;5036913;28;20281;-87
2023/08/25 00:37:54;;;;;;;6.03;3.25;;;20.60;99.90;;;;;;5037136;28;20214;-89
2023/08/25 00:40:19;;;;;;;5.63;3.33;;;20.70;99.90;;;;;;5039215;28;20220;-88
2023/08/25 00:42:45;;;;;;;11.50;3.60;;;20.70;99.90;;;;;;5038733;28;20170;-89
2023/08/25 00:45:11;;;;;;;5.97;3.50;;;20.70;99.90;;;;;;5040147;28;20196;-89
2023/08/25 00:47:37;;;;;;;6.43;3.50;;;20.60;99.90;;;;;;5033862;28;20535;-89
2023/08/25 00:50:05;;;;;;;6.40;3.42;;;20.50;99.90;;;;;;5027276;28;20179;-89
2023/08/25 00:52:31;;;;;;;3.72;3.08;;;20.50;99.90;;;;;;5032237;28;20186;-88
2023/08/25 00:54:58;;;;;;;5.63;3.38;;;20.50;99.90;;;;;;5005495;28;20184;-88
2023/08/25 00:57:25;;;;;;;6.95;3.17;;;20.40;99.90;;;;;;5020052;28;20209;-89
2023/08/25 00:59:52;;;;;;;7.78;3.47;;;20.30;99.90;;;;;;5026357;28;20659;-88
2023/08/25 01:02:21;;;;;;;4.97;3.17;;;20.30;99.90;;;;;;5031353;28;20194;-88
2023/08/25 01:04:47;;;;;;;5.20;3.00;;;20.20;99.90;;;;;;5031773;28;20193;-89
2023/08/25 01:07:12;;;;;;;4.35;3.20;;;20.20;99.90;;;;;;5028884;28;20178;-88
2023/08/25 01:09:42;;;;;;;7.13;3.20;;;20.10;99.90;;;;;;5026848;28;20178;-89
2023/08/25 01:12:27;;;;;;;4.68;3.40;;;20.10;99.90;;;;;;5025987;28;20225;-89
2023/08/25 01:15:04;;;;;;;5.68;3.17;;;20.10;99.90;;;;;;5027718;28;20174;-88
2023/08/25 01:17:54;;;;;;;4.80;3.33;;;20.20;99.90;;;;;;5032727;28;20237;-87
2023/08/25 01:20:23;;;;;;;6.00;3.10;;;20.20;99.90;;;;;;5047268;28;20272;-88
2023/08/25 01:22:58;;;;;;;6.65;3.03;;;20.10;99.90;;;;;;5047600;28;20209;-87
2023/08/25 01:25:26;;;;;;;5.40;3.03;;;20.10;99.90;;;;;;5048463;28;20186;-88
2023/08/25 01:27:54;;;;;;;7.13;3.38;;;20.10;99.90;;;;;;5066709;28;20193;-88
2023/08/25 01:30:23;;;;;;;12.50;3.75;;;20.00;99.90;;;;;;5053706;28;20182;-89
2023/08/25 01:32:52;;;;;;;4.07;3.05;;;20.10;99.90;;;;;;5060134;28;20178;-88
2023/08/25 01:35:22;;;;;;;4.90;3.67;;;20.00;99.90;;;;;;5056905;28;20178;-88
2023/08/25 01:38:03;;;;;;;4.82;3.13;;;20.00;99.90;;;;;;5050141;28;20205;-88
2023/08/25 01:40:44;;;;;;;3.95;3.10;;;20.10;99.90;;;;;;5044425;28;20181;-88
2023/08/25 01:43:16;;;;;;;7.57;3.70;;;20.10;99.90;;;;;;5042831;28;20612;-88
2023/08/25 01:45:41;;;;;;;7.75;3.30;;;20.10;99.90;;;;;;5041317;28;20185;-89
2023/08/25 01:48:09;;;;;;;7.93;3.80;;;20.10;99.90;;;;;;5040888;28;20178;-88
2023/08/25 01:50:37;;;;;;;10.57;3.50;;;20.10;99.90;;;;;;5059266;28;20185;-88
2023/08/25 01:53:03;;;;;;;7.95;3.47;;;20.10;99.90;;;;;;5042294;28;20178;-88
2023/08/25 01:55:29;;;;;;;9.38;3.55;;;20.10;99.90;;;;;;5041361;28;20196;-88
2023/08/25 01:57:55;;;;;;;8.75;3.70;;;20.10;99.90;;;;;;5040555;28;20300;-89
2023/08/25 02:00:23;;;;;;;11.55;3.85;;;20.00;99.90;;;;;;5041077;28;20257;-89
2023/08/25 02:02:49;;;;;;;9.23;4.38;;;20.10;99.90;;;;;;5041311;28;20198;-87
2023/08/25 02:05:15;;;;;;;5.32;3.58;;;20.10;99.90;;;;;;5040833;28;20177;-88
2023/08/25 02:07:40;;;;;;;8.07;3.67;;;20.10;99.90;;;;;;5040800;28;20169;-88
2023/08/25 02:10:07;;;;;;;10.23;3.90;;;20.10;99.90;;;;;;5040482;28;20178;-88
2023/08/25 02:12:33;;;;;;;9.13;3.70;;;20.10;99.90;;;;;;5040507;28;20162;-89
2023/08/25 02:14:59;;;;;;;7.78;4.00;;;20.10;99.90;;;;;;5040496;28;20178;-88
2023/08/25 02:17:25;;;;;;;4.60;3.47;;;20.20;99.90;;;;;;5040484;28;20279;-88
2023/08/25 02:19:51;;;;;;;7.15;3.67;;;20.20;99.90;;;;;;5040861;28;20182;-88
2023/08/25 02:22:38;;;;;;;4.55;3.40;;;20.20;99.90;;;;;;5040440;28;20182;-88
2023/08/25 02:25:04;;;;;;;6.93;3.45;;;20.20;99.90;;;;;;5058549;28;20170;-88
2023/08/25 02:27:30;;;;;;;6.70;3.55;;;20.20;99.90;;;;;;5040301;28;20174;-87
2023/08/25 02:29:56;;;;;;;5.57;3.47;;;20.20;99.90;;;;;;5040081;28;20185;-88
2023/08/25 02:32:21;;;;;;;6.78;3.88;;;20.20;99.90;;;;;;5040973;28;20216;-88
2023/08/25 02:34:47;;;;;;;4.55;3.22;;;20.20;99.90;;;;;;5041601;28;20528;-89
2023/08/25 02:37:13;;;;;;;4.63;3.28;;;20.10;99.90;;;;;;5041315;28;20213;-88
2023/08/25 02:39:39;;;;;;;8.43;3.90;;;20.00;99.90;;;;;;5039686;28;20612;-88
2023/08/25 02:42:04;;;;;;;4.97;3.10;;;20.00;99.90;;;;;;5039676;28;20178;-88
2023/08/25 02:44:30;;;;;;;6.22;3.60;;;19.90;99.90;;;;;;5040851;28;20528;-88
2023/08/25 02:46:56;;;;;;;8.10;3.80;;;19.90;99.90;;;;;;5041972;28;20170;-87
2023/08/25 02:49:23;;;;;;;6.90;3.58;;;19.80;99.90;;;;;;5041952;28;20189;-89
2023/08/25 02:51:51;;;;;;;5.90;3.83;;;19.80;99.90;;;;;;5040890;28;20178;-88
2023/08/25 02:54:17;;;;;;;5.20;3.72;;;19.80;99.90;;;;;;5039820;28;20174;-88
2023/08/25 02:56:42;;;;;;;7.53;3.55;;;19.80;99.90;;;;;;5039794;28;20177;-88
2023/08/25 02:59:08;;;;;;;4.78;3.42;;;19.80;99.90;;;;;;5039810;28;20240;-88
2023/08/25 03:01:36;;;;;;;6.13;3.60;;;19.80;99.90;;;;;;5040249;28;20265;-87
2023/08/25 03:04:02;;;;;;;5.35;3.35;;;19.80;99.90;;;;;;5040681;28;20177;-89
2023/08/25 03:06:27;;;;;;;6.32;3.60;;;19.80;99.90;;;;;;5040532;28;20178;-88
2023/08/25 03:08:53;;;;;;;7.00;3.92;;;19.80;99.90;;;;;;5040434;28;20213;-88
2023/08/25 03:11:20;;;;;;;6.03;3.30;;;19.80;99.90;;;;;;5041242;28;20174;-88
2023/08/25 03:13:46;;;;;;;5.45;3.40;;;19.80;99.90;;;;;;5041705;28;20168;-88
2023/08/25 03:16:12;;;;;;;8.30;3.47;;;19.90;99.90;;;;;;5023827;28;20515;-88
2023/08/25 03:18:37;;;;;;;10.00;3.35;;;19.80;99.90;;;;;;5039015;28;20233;-88
2023/08/25 03:21:05;;;;;;;4.97;3.70;;;19.90;99.90;;;;;;5039725;28;20189;-87
2023/08/25 03:23:31;;;;;;;6.18;3.47;;;19.80;99.90;;;;;;5040249;28;20174;-88
2023/08/25 03:25:57;;;;;;;9.85;3.70;;;19.80;99.90;;;;;;5040094;28;20181;-88
2023/08/25 03:28:23;;;;;;;5.95;3.40;;;19.80;99.90;;;;;;5039710;28;20272;-88
2023/08/25 03:30:53;;;;;;;5.28;3.40;;;19.70;99.90;;;;;;5039220;28;20212;-88
2023/08/25 03:33:25;;;;;;;5.47;3.63;;;19.70;99.90;;;;;;5038876;28;20229;-88
2023/08/25 03:35:51;;;;;;;6.18;3.83;;;19.60;99.90;;;;;;5039487;28;20196;-88
2023/08/25 03:38:17;;;;;;;5.68;3.75;;;19.60;99.90;;;;;;5022694;28;20214;-88
2023/08/25 03:40:43;;;;;;;7.78;4.00;;;19.50;99.90;;;;;;5039601;28;20174;-88
2023/08/25 03:43:14;;;;;;;7.63;3.60;;;19.40;99.90;;;;;;5039525;28;20177;-89
2023/08/25 03:45:39;;;;;;;8.52;4.10;;;19.30;99.90;;;;;;5038992;28;20178;-89
2023/08/25 03:48:05;;;;;;;8.95;4.35;;;19.20;99.90;;;;;;5036381;28;20244;-88
2023/08/25 03:50:31;;;;;;;7.10;3.90;;;19.20;99.90;;;;;;5037292;28;20182;-89
2023/08/25 03:53:07;;;;;;;7.35;4.20;;;19.20;99.90;;;;;;5038376;28;20182;-88
2023/08/25 03:55:32;;;;;;;8.80;4.10;;;19.20;99.90;;;;;;5038077;28;20159;-88
2023/08/25 03:57:59;;;;;;;8.02;4.07;;;19.10;99.90;;;;;;5038050;28;20212;-88
2023/08/25 04:00:25;;;;;;;7.78;4.53;;;19.10;99.90;;;;;;5038322;28;20903;-88
2023/08/25 04:02:52;;;;;;;12.55;4.38;;;19.10;99.90;;;;;;5038112;28;20181;-88
2023/08/25 04:05:19;;;;;;;5.57;4.00;;;19.10;99.90;;;;;;5038054;28;20609;-88
2023/08/25 04:07:45;;;;;;;7.40;4.07;;;19.10;99.90;;;;;;5038151;28;20179;-88
2023/08/25 04:10:10;;;;;;;7.97;3.75;;;19.00;99.90;;;;;;5037685;28;20181;-88
2023/08/25 04:12:36;;;;;;;7.25;4.20;;;19.00;99.90;;;;;;5037725;28;20201;-88
2023/08/25 04:15:02;;;;;;;6.03;4.13;;;19.00;99.90;;;;;;5037891;28;20262;-88
2023/08/25 04:17:30;;;;;;;7.22;4.22;;;19.00;99.90;;;;;;5041122;28;20253;-87
2023/08/25 04:19:56;;;;;;;8.07;4.30;;;19.10;99.90;;;;;;5040444;28;20184;-88
2023/08/25 04:22:21;;;;;;;6.75;3.90;;;19.00;99.90;;;;;;5041293;28;20170;-87
2023/08/25 04:24:47;;;;;;;6.03;4.13;;;19.00;99.90;;;;;;5041258;28;20691;-88
2023/08/25 04:27:13;;;;;;;5.03;3.80;;;19.00;99.90;;;;;;5040880;28;20202;-89
2023/08/25 04:29:39;;;;;;;6.30;4.00;;;19.00;99.90;;;;;;5040994;28;20525;-88
2023/08/25 04:32:04;;;;;;;4.45;3.65;;;19.00;99.90;;;;;;5041060;28;20188;-88
2023/08/25 04:34:30;;;;;;;7.68;4.07;;;19.10;99.90;;;;;;5040549;28;20228;-88
2023/08/25 04:36:56;;;;;;;7.18;3.95;;;19.00;99.90;;;;;;5040102;28;20181;-88
2023/08/25 04:39:22;;;;;;;7.38;4.05;;;19.00;99.90;;;;;;5039563;28;20213;-86
2023/08/25 04:41:57;;;;;;;6.45;4.13;;;19.00;99.90;;;;;;5038721;28;20512;-87
2023/08/25 04:44:23;;;;;;;7.45;4.15;;;19.00;99.90;;;;;;5073357;28;20200;-87
2023/08/25 04:46:49;;;;;;;9.27;4.13;;;19.00;99.90;;;;;;5057835;28;20206;-88
2023/08/25 04:49:15;;;;;;;8.75;4.03;;;19.00;99.90;;;;;;5039559;28;20173;-89
2023/08/25 04:51:42;;;;;;;6.43;3.97;;;19.00;99.90;;;;;;5039279;28;20200;-87
2023/08/25 04:54:10;;;;;;;7.43;3.90;;;19.00;99.90;;;;;;5055831;28;20227;-87
2023/08/25 04:56:36;;;;;;;4.50;3.55;;;19.00;99.90;;;;;;5019668;28;20616;-87
2023/08/25 04:59:01;;;;;;;4.88;4.20;;;19.10;99.90;;;;;;5035786;28;20222;-88
2023/08/25 05:01:28;;;;;;;8.50;4.75;;;19.10;99.90;;;;;;5034964;28;20178;-87
2023/08/25 05:03:55;;;;;;;9.05;4.03;;;19.20;99.90;;;;;;5036620;28;20185;-87
2023/08/25 05:06:21;;;;;;;7.53;3.95;;;19.20;99.90;;;;;;5021183;28;20177;-87
2023/08/25 05:08:47;;;;;;;5.22;3.88;;;19.30;99.90;;;;;;5055081;28;20227;-88
2023/08/25 05:11:16;;;;;;;5.90;4.07;;;19.30;99.90;;;;;;5037434;28;20556;-87
2023/08/25 05:13:42;;;;;;;8.10;4.53;;;19.30;99.90;;;;;;5055479;28;20227;-87
2023/08/25 05:16:08;;;;;;;6.38;3.97;;;19.30;99.90;;;;;;5037386;28;20241;-87
2023/08/25 05:18:34;;;;;;;9.23;4.40;;;19.40;99.90;;;;;;5036914;28;20273;-86
2023/08/25 05:21:00;;;;;;;9.65;4.28;;;19.40;99.90;;;;;;5038643;28;20508;-87
2023/08/25 05:23:28;;;;;;;7.85;3.78;;;19.50;99.90;;;;;;5037869;28;20711;-88
2023/08/25 05:25:55;;;;;;;6.78;3.88;;;19.60;99.90;;;;;;5056917;28;20173;-87
2023/08/25 05:28:21;;;;;;;5.68;4.05;;;19.60;99.90;;;;;;5038189;28;20521;-86
2023/08/25 05:30:48;;;;;;;6.95;4.07;;;19.70;99.90;;;;;;5037736;28;20174;-88
2023/08/25 05:33:15;;;;;;;10.52;3.83;;;19.80;99.90;;;;;;5036708;28;20648;-86
2023/08/25 05:35:41;;;;;;;5.20;3.63;;;19.80;99.90;;;;;;5037120;28;20224;-87
2023/08/25 05:38:07;;;;;;;10.88;4.57;;;19.80;99.90;;;;;;5036687;28;20214;-86
2023/08/25 05:40:32;;;;;;;6.57;4.40;;;19.90;99.90;;;;;;5035533;28;20189;-86
2023/08/25 05:42:58;;;;;;;7.40;3.78;;;19.90;99.90;;;;;;5036136;28;20182;-85
2023/08/25 05:45:24;;;;;;;11.68;3.67;;;19.90;99.90;;;;;;5035258;28;20193;-85
2023/08/25 05:47:50;;;;;;;6.15;3.90;;;20.00;99.90;;;;;;5054037;28;20166;-86
2023/08/25 05:50:15;;;;;;;8.57;4.10;;;20.00;99.90;;;;;;5035472;28;20193;-86
2023/08/25 05:52:44;;;;;;;9.30;4.25;;;20.00;99.90;;;;;;5036073;28;20182;-85
2023/08/25 05:55:17;;;;;;;5.03;3.70;;;20.10;99.90;;;;;;5036575;28;20273;-85
2023/08/25 05:57:43;;;;;;;8.30;4.35;;;20.20;99.90;;;;;;5046490;28;20524;-86
2023/08/25 06:00:09;;;;;;;13.45;4.63;;;20.20;99.90;;;;;;5040654;28;20196;-86
2023/08/25 06:02:35;;;;;;;5.53;3.88;;;20.30;99.90;;;;;;5036090;28;20177;-87
2023/08/25 06:05:03;;;;;;;7.93;3.50;;;20.30;99.90;;;;;;5035345;28;20755;-86
2023/08/25 06:07:28;;;;;;;6.30;3.13;;;20.40;99.90;;;;;;5054192;28;20209;-85
2023/08/25 06:09:54;;;;;;;7.25;3.45;;;20.50;99.90;;;;;;5035344;28;20608;-86
2023/08/25 06:12:20;;;;;;;6.05;3.50;;;20.70;99.90;;;;;;5036023;28;20181;-84
2023/08/25 06:14:47;;;;;;;4.93;2.92;;;20.80;99.90;;;;;;5037734;28;20519;-86
2023/08/25 06:17:13;;;;;;;7.50;2.90;;;21.00;99.90;;;;;;5039523;28;20308;-85
2023/08/25 06:19:39;;;;;;;9.52;3.10;;;21.10;99.90;;;;;;5039730;28;20753;-86
2023/08/25 06:22:04;;;;;;;4.63;2.63;;;21.20;99.90;;;;;;5039458;28;20234;-86
2023/08/25 06:24:31;;;;;;;9.80;2.90;;;21.30;99.90;;;;;;5035453;28;20193;-85
2023/08/25 06:26:58;;;;;;;5.25;2.63;;;21.40;99.90;;;;;;5035714;28;20259;-85
2023/08/25 06:29:23;;;;;;;5.22;2.50;;;21.50;99.90;;;;;;5035775;28;20603;-85
2023/08/25 06:31:49;;;;;;;9.35;3.00;;;21.60;99.90;;;;;;5034330;28;20189;-85
2023/08/25 06:34:15;;;;;;;5.63;2.60;;;21.70;99.90;;;;;;5035479;28;20189;-85
2023/08/25 06:36:41;;;;;;;6.85;2.70;;;21.80;99.90;;;;;;5036753;28;20170;-85
2023/08/25 06:39:07;;;;;;;7.63;2.55;;;21.90;99.90;;;;;;5034994;28;20216;-85
2023/08/25 06:41:32;;;;;;;5.28;2.65;;;22.00;99.90;;;;;;5034989;28;20183;-85
2023/08/25 06:43:59;;;;;;;5.28;2.60;;;22.10;99.90;;;;;;5035140;28;20187;-85
2023/08/25 06:46:24;;;;;;;4.03;2.17;;;22.10;99.90;;;;;;5035351;28;20727;-85
2023/08/25 06:48:50;;;;;;;6.63;2.45;;;22.20;99.90;;;;;;5037921;28;20284;-85
2023/08/25 06:51:16;;;;;;;15.75;3.08;;;22.30;99.90;;;;;;5038684;28;20181;-86
2023/08/25 06:53:42;;;;;;;10.93;2.85;;;22.30;99.90;;;;;;5038027;28;20486;-85
2023/08/25 06:56:08;;;;;;;6.43;2.40;;;22.40;99.90;;;;;;5055939;28;20170;-85
2023/08/25 06:58:33;;;;;;;6.65;2.70;;;22.50;99.90;;;;;;5038475;28;20214;-85
2023/08/25 07:01:00;;;;;;;8.10;2.60;;;22.50;99.90;;;;;;5056354;28;20167;-84
2023/08/25 07:03:26;;;;;;;5.47;2.40;;;22.50;99.90;;;;;;5038861;28;20639;-84
2023/08/25 07:05:57;;;;;;;5.20;2.20;;;22.60;99.90;;;;;;5039032;28;20178;-85
2023/08/25 07:08:25;;;;;;;6.40;2.13;;;22.70;99.90;;;;;;5039205;28;20181;-84
2023/08/25 07:10:51;;;;;;;7.63;2.30;;;22.70;99.90;;;;;;5038776;28;20178;-85
2023/08/25 07:13:17;;;;;;;9.20;2.67;;;22.80;99.90;;;;;;5038504;28;20490;-85
2023/08/25 07:15:43;;;;;;;7.38;2.83;;;22.80;99.90;;;;;;5038653;28;20604;-84
2023/08/25 07:18:09;;;;;;;7.25;2.55;;;22.80;99.90;;;;;;5033880;28;20245;-85
2023/08/25 07:20:35;;;;;;;8.50;2.70;;;22.80;99.90;;;;;;5019110;28;20179;-86
2023/08/25 07:23:01;;;;;;;5.88;2.38;;;22.80;99.90;;;;;;5018491;28;20190;-84
2023/08/25 07:25:26;;;;;;;5.05;2.47;;;22.90;99.90;;;;;;5018535;28;20178;-85
2023/08/25 07:27:52;;;;;;;6.10;2.20;;;23.00;99.90;;;;;;5018496;28;20483;-87
2023/08/25 07:30:18;;;;;;;4.60;2.45;;;23.00;99.90;;;;;;5018753;28;20174;-86
2023/08/25 07:32:44;;;;;;;9.48;2.90;;;23.10;99.90;;;;;;5018498;28;20174;-85
2023/08/25 07:35:10;;;;;;;7.00;2.80;;;23.10;99.90;;;;;;5018640;28;20233;-85
2023/08/25 07:37:37;;;;;;;6.32;2.45;;;23.20;99.90;;;;;;5018864;28;20214;-86
2023/08/25 07:40:05;;;;;;;5.20;2.60;;;23.20;99.90;;;;;;5018691;28;20214;-84
2023/08/25 07:42:31;;;;;;;4.90;2.22;;;23.30;99.90;;;;;;5035628;28;20566;-85
2023/08/25 07:44:57;;;;;;;4.45;2.20;;;23.30;99.90;;;;;;5035913;28;20201;-86
2023/08/25 07:47:23;;;;;;;8.35;2.70;;;23.40;99.90;;;;;;5036005;28;20169;-86
2023/08/25 07:49:49;;;;;;;5.72;2.35;;;23.40;99.90;;;;;;5036122;28;20193;-86
2023/08/25 07:52:14;;;;;;;6.00;2.60;;;23.50;99.90;;;;;;5038046;28;20264;-85
2023/08/25 07:54:40;;;;;;;6.07;2.75;;;23.40;99.90;;;;;;5037923;28;20666;-87
2023/08/25 07:57:07;;;;;;;12.23;3.50;;;23.50;99.90;;;;;;5055495;28;20608;-85
2023/08/25 07:59:33;;;;;;;7.57;2.95;;;23.50;99.90;;;;;;5037893;28;20532;-86
2023/08/25 08:01:59;;;;;;;5.85;2.85;;;23.60;99.90;;;;;;5037359;28;20193;-85
2023/08/25 08:04:25;;;;;;;7.20;2.58;;;23.60;99.90;;;;;;5055599;28;20176;-85
2023/08/25 08:06:51;;;;;;;7.85;2.80;;;23.60;99.90;;;;;;5056641;28;20178;-88
2023/08/25 08:09:17;;;;;;;5.72;3.28;;;23.70;99.90;;;;;;5039586;28;20208;-86
2023/08/25 08:11:43;;;;;;;4.60;2.83;;;23.70;99.90;;;;;;5057259;28;20178;-85
2023/08/25 08:14:09;;;;;;;5.25;2.90;;;23.80;99.90;;;;;;5038256;28;20180;-87
2023/08/25 08:16:35;;;;;;;4.32;2.78;;;23.90;99.90;;;;;;5039045;28;20528;-86
2023/08/25 08:19:02;;;;;;;5.32;3.10;;;24.00;99.90;;;;;;5055493;28;20279;-86
2023/08/25 08:21:28;;;;;;;4.85;2.78;;;24.00;99.90;;;;;;5037221;28;20174;-87
2023/08/25 08:23:54;;;;;;;6.50;3.15;;;24.10;99.90;;;;;;5037347;28;20602;-86
2023/08/25 08:26:22;;;;;;;5.28;2.95;;;24.10;99.90;;;;;;5037269;28;20269;-85
2023/08/25 08:28:47;;;;;;;7.82;3.47;;;24.20;99.90;;;;;;5037784;28;20180;-86
2023/08/25 08:31:18;;;;;;;5.82;3.50;;;24.20;99.90;;;;;;5037948;28;20243;-88
2023/08/25 08:33:45;;;;;;;5.43;3.28;;;24.30;99.90;;;;;;5021328;28;20182;-85
2023/08/25 08:36:11;;;;;;;5.68;3.33;;;24.20;99.90;;;;;;5017276;28;20273;-85
2023/08/25 08:38:37;;;;;;;5.50;3.17;;;24.20;99.90;;;;;;5016365;28;20210;-86
2023/08/25 08:41:03;;;;;;;6.70;3.28;;;24.20;99.90;;;;;;5034637;28;20721;-86
2023/08/25 08:43:35;;;;;;;6.30;2.35;;;24.30;99.90;;;;;;5017069;28;20648;-85
2023/08/25 08:46:03;;;;;;;6.88;2.38;;;24.30;99.90;;;;;;5017281;28;20257;-85
2023/08/25 08:48:34;;;;;;;5.30;2.50;;;24.40;99.90;;;;;;5033314;28;20171;-85
2023/08/25 08:51:02;;;;;;;5.95;2.33;;;24.50;99.90;;;;;;5017126;28;20214;-87
2023/08/25 08:53:27;;;;;;;7.15;2.30;;;24.60;99.90;;;;;;5016695;28;20206;-85
2023/08/25 08:55:54;;;;;;;8.40;2.42;;;24.70;99.90;;;;;;5034527;28;20205;-86
2023/08/25 08:58:21;;;;;;;7.03;2.30;;;24.80;99.90;;;;;;5016780;28;20203;-85
2023/08/25 09:00:47;;;;;;;5.70;2.65;;;25.00;99.90;;;;;;5016817;28;20185;-85
2023/08/25 09:03:18;;;;;;;6.35;2.35;;;25.00;99.90;;;;;;5026031;28;20187;-85
2023/08/25 09:05:46;;;;;;;7.38;2.40;;;25.00;99.90;;;;;;5034358;28;20174;-85
2023/08/25 09:08:15;;;;;;;5.55;2.53;;;25.00;99.90;;;;;;5016676;28;20175;-86
2023/08/25 09:10:40;;;;;;;5.00;2.22;;;25.00;99.90;;;;;;5034667;28;20175;-85
2023/08/25 09:13:07;;;;;;;4.68;2.50;;;25.00;99.90;;;;;;5016925;28;20174;-85
2023/08/25 09:15:33;;;;;;;4.85;2.50;;;25.10;99.90;;;;;;5034373;28;20174;-86
2023/08/25 09:18:07;;;;;;;4.60;1.92;;;25.10;99.90;;;;;;5016185;28;20280;-85
2023/08/25 09:20:35;;;;;;;5.47;2.10;;;25.00;99.90;;;;;;5016250;28;20185;-84
2023/08/25 09:23:02;;;;;;;4.80;2.05;;;25.00;99.90;;;;;;5016490;28;20263;-85
2023/08/25 09:25:28;;;;;;;5.32;2.20;;;25.20;99.90;;;;;;5016593;28;20174;-87
2023/08/25 09:27:58;;;;;;;4.18;2.13;;;25.20;99.90;;;;;;5034028;28;20182;-87
2023/08/25 09:30:37;;;;;;;10.43;1.90;;;25.30;99.90;;;;;;5016791;28;20186;-86
2023/08/25 09:33:04;;;;;;;8.20;1.90;;;25.40;99.90;;;;;;5028056;28;20646;-85
2023/08/25 09:35:31;;;;;;;3.75;2.00;;;25.40;99.90;;;;;;5054118;28;20671;-88
2023/08/25 09:37:57;;;;;;;4.60;1.90;;;25.40;99.90;;;;;;5054046;28;20201;-87
2023/08/25 09:40:23;;;;;;;8.18;2.00;;;25.40;99.90;;;;;;5054050;28;20166;-84
2023/08/25 09:42:48;;;;;;;4.13;1.77;;;25.60;99.90;;;;;;5036402;28;20178;-86
2023/08/25 09:45:14;;;;;;;5.88;2.10;;;25.70;99.90;;;;;;5036323;28;20186;-85
2023/08/25 09:47:42;;;;;;;4.05;1.80;;;25.60;99.90;;;;;;5035689;28;20276;-84
2023/08/25 09:50:12;;;;;;;5.88;1.80;;;25.60;99.90;;;;;;5038880;28;20181;-86
2023/08/25 09:52:40;;;;;;;5.55;2.13;;;25.60;99.90;;;;;;5040011;28;20185;-85
2023/08/25 09:55:06;;;;;;;4.78;1.90;;;25.60;99.90;;;;;;5039783;28;20186;-84
2023/08/25 09:57:34;;;;;;;4.50;2.05;;;25.60;99.90;;;;;;5039830;28;20205;-86
2023/08/25 10:00:00;;;;;;;4.75;2.20;;;25.80;99.90;;;;;;5039634;28;20222;-85
2023/08/25 10:02:26;;;;;;;4.47;1.60;;;25.80;99.90;;;;;;5039454;28;20186;-86
2023/08/25 10:04:54;;;;;;;7.18;1.80;;;25.80;99.90;;;;;;5040044;28;20197;-87
2023/08/25 10:07:22;;;;;;;6.35;1.90;;;25.60;99.90;;;;;;5039761;28;20174;-84
2023/08/25 10:09:48;;;;;;;5.93;1.90;;;25.50;99.90;;;;;;5039586;28;20170;-86
2023/08/25 10:12:16;;;;;;;8.45;2.30;;;25.40;99.90;;;;;;5038873;28;20526;-86
2023/08/25 10:14:46;;;;;;;8.45;2.30;;;25.40;99.90;;;;;;5039683;28;20524;-84
2023/08/25 10:17:14;;;;;;;7.20;1.70;;;25.40;99.90;;;;;;5056520;28;20230;-86
2023/08/25 10:19:42;;;;;;;10.20;2.28;;;25.50;99.90;;;;;;5057148;28;20205;-86
2023/08/25 10:22:09;;;;;;;6.65;2.20;;;25.60;99.90;;;;;;5057116;28;20166;-85
2023/08/25 10:24:36;;;;;;;7.75;1.92;;;25.60;99.90;;;;;;5023606;28;20591;-86
2023/08/25 10:27:02;;;;;;;25.65;2.38;;;25.60;99.90;;;;;;5019383;28;20179;-86
2023/08/25 10:29:28;;;;;;;13.50;2.40;;;25.60;99.90;;;;;;5019316;28;20182;-86
2023/08/25 10:32:02;;;;;;;13.63;2.70;;;25.50;99.90;;;;;;5036822;28;20186;-84
2023/08/25 10:34:36;;;;;;;14.75;2.65;;;25.40;99.90;;;;;;5019421;28;20187;-86
2023/08/25 10:37:22;;;;;;;6.53;2.28;;;25.30;99.90;;;;;;5019290;28;20189;-87
2023/08/25 10:39:48;;;;;;;7.38;2.15;;;25.30;99.90;;;;;;5018953;28;20280;-85
2023/08/25 10:42:22;;;;;;;8.95;2.30;;;25.20;99.90;;;;;;5035389;28;20221;-84
2023/08/25 10:44:54;;;;;;;6.55;2.40;;;25.10;99.90;;;;;;5019194;28;20227;-85
2023/08/25 10:47:22;;;;;;;6.20;2.10;;;25.00;99.90;;;;;;5018980;28;20225;-85
2023/08/25 10:49:55;;;;;;;5.53;2.10;;;24.90;99.90;;;;;;5018829;28;20639;-85
2023/08/25 10:52:22;;;;;;;6.93;2.35;;;24.90;99.90;;;;;;5018956;28;20182;-86
2023/08/25 10:54:52;;;;;;;6.85;2.30;;;24.80;99.90;;;;;;5035085;28;20193;-85
2023/08/25 10:57:22;;;;;;;4.57;2.10;;;24.80;99.90;;;;;;5038651;28;20184;-86
2023/08/25 10:59:52;;;;;;;7.15;2.22;;;24.70;99.90;;;;;;5056315;28;20184;-86
2023/08/25 11:02:37;;;;;;;6.10;2.70;;;24.60;99.90;;;;;;5036725;28;20174;-85
2023/08/25 11:05:31;;;;;;;4.03;2.25;;;24.50;99.90;;;;;;5056275;28;20612;-85
2023/08/25 11:08:01;;;;;;;4.88;2.40;;;24.40;99.90;;;;;;5038606;28;20209;-85
2023/08/25 11:10:30;;;;;;;6.70;2.47;;;24.30;99.90;;;;;;5038557;28;20177;-86
2023/08/25 11:12:58;;;;;;;11.02;3.05;;;24.20;99.90;;;;;;5038363;28;20231;-86
2023/08/25 11:15:25;;;;;;;8.32;2.78;;;24.10;99.90;;;;;;5038973;28;20323;-87
2023/08/25 11:17:51;;;;;;;9.95;2.88;;;24.00;99.90;;;;;;5045517;28;20237;-88
2023/08/25 11:20:18;;;;;;;8.38;2.47;;;23.90;99.90;;;;;;5040190;28;20256;-88
2023/08/25 11:22:58;;;;;;;6.45;2.75;;;23.80;99.90;;;;;;5038807;28;20243;-87
2023/08/25 11:25:25;;;;;;;10.32;2.90;;;23.80;99.90;;;;;;5038863;28;20176;-89
2023/08/25 11:27:53;;;;;;;6.68;3.10;;;23.70;99.90;;;;;;5038944;28;20182;-89
2023/08/25 11:30:22;;;;;;;10.27;3.30;;;23.60;99.90;;;;;;5038538;28;20181;-88
2023/08/25 11:32:49;;;;;;;4.78;2.80;;;23.50;99.90;;;;;;5037543;28;20178;-87
2023/08/25 11:35:16;;;;;;;7.38;3.25;;;23.50;99.90;;;;;;5038470;28;20239;-89
2023/08/25 11:37:46;;;;;;;9.35;3.40;;;23.30;99.90;;;;;;5038519;28;20641;-89
2023/08/25 11:40:18;;;;;;;7.78;3.47;;;23.10;99.90;;;;;;5038115;28;20226;-88
2023/08/25 11:42:44;;;;;;;9.93;3.42;;;23.10;99.90;;;;;;5038289;28;20181;-88
2023/08/25 11:45:11;;;;;;;6.82;4.22;;;23.00;99.90;;;;;;5038499;28;20671;-89
2023/08/25 11:47:40;;;;;;;11.43;4.10;;;22.90;99.90;;;;;;5038344;28;20232;-88
2023/08/25 11:50:06;;;;;;;8.35;4.10;;;22.70;99.90;;;;;;5022188;28;20329;-87
2023/08/25 11:52:33;;;;;;;7.35;4.20;;;22.60;99.90;;;;;;5036372;28;20593;-89
2023/08/25 11:54:59;;;;;;;10.82;4.10;;;22.60;99.90;;;;;;5018636;28;20209;-90
2023/08/25 11:57:35;;;;;;;9.73;4.13;;;22.50;99.90;;;;;;5018347;28;20210;-88
2023/08/25 12:00:07;;;;;;;8.32;4.00;;;22.40;99.90;;;;;;5035620;28;20170;-89
2023/08/25 12:02:33;;;;;;;6.97;3.90;;;22.40;99.90;;;;;;5018294;28;20224;-87
2023/08/25 12:05:04;;;;;;;8.38;4.03;;;22.40;99.90;;;;;;5018109;28;20555;-89
2023/08/25 12:07:32;;;;;;;8.70;4.10;;;22.30;99.90;;;;;;5018327;28;20171;-88
2023/08/25 12:10:05;;;;;;;6.15;4.15;;;22.20;99.90;;;;;;5018064;28;20230;-87
2023/08/25 12:12:40;;;;;;;7.30;4.47;;;22.10;99.90;;;;;;5018102;28;20174;-87
2023/08/25 12:15:12;;;;;;;10.00;3.80;;;22.00;99.90;;;;;;5019384;28;20613;-91
2023/08/25 12:17:39;;;;;;;8.00;4.55;;;21.90;99.90;;;;;;5040233;28;20329;-90
2023/08/25 12:20:16;;;;;;;6.40;4.30;;;21.80;99.90;;;;;;5037998;28;20173;-87
2023/08/25 12:22:57;;;;;;;8.60;5.05;;;21.80;99.90;;;;;;5026018;28;20269;-87
2023/08/25 12:25:26;;;;;;;9.85;6.57;;;21.70;99.90;;;;;;5021081;28;20170;-90
2023/08/25 12:27:55;;;;;;;11.02;6.38;;;21.60;99.90;;;;;;5049674;28;20177;-90
2023/08/25 12:30:28;;;;;;;11.10;6.55;;;21.70;99.90;;;;;;5039968;28;20173;-87
2023/08/25 12:32:54;;;;;;;17.92;7.13;;;21.60;99.90;;;;;;5037969;28;20181;-88
2023/08/25 12:35:23;;;;;;;11.23;8.20;;;21.70;99.90;;;;;;5038601;28;20235;-90
2023/08/25 12:37:51;;;;;;;10.45;7.93;;;21.70;99.90;;;;;;5037306;28;20201;-90
2023/08/25 12:40:20;;;;;;;10.20;7.10;;;21.50;99.90;;;;;;5041153;28;20220;-89
2023/08/25 12:42:53;;;;;;;11.25;6.88;;;21.50;99.90;;;;;;5042404;28;20170;-91
2023/08/25 12:45:24;;;;;;;8.73;6.50;;;21.40;99.90;;;;;;5037366;28;20197;-87
2023/08/25 12:47:52;;;;;;;11.10;6.38;;;21.40;99.90;;;;;;5038805;28;20196;-87